Time;durP1;ratioP1;P1;durP2;ratioP2;P2;SDS_P1;SDS_P2;PMS_P1;PMS_P2;Temp;Humidity;BMP_temperature;BMP_pressure;BME280_temperature;BME280_humidity;BME280_pressure;Samples;Min_cycle;Max_cycle;Signal;HPM_P1;HPM_P2
2023/06/08 00:00:50;;;;;;;16.40;7.50;;;20.60;99.90;;;;;;5033583;28;20112;-76
2023/06/08 00:03:18;;;;;;;21.35;8.38;;;20.50;99.90;;;;;;5037467;28;20013;-76
2023/06/08 00:05:49;;;;;;;13.20;7.53;;;20.50;99.90;;;;;;5034789;28;20049;-77
2023/06/08 00:08:15;;;;;;;14.55;7.20;;;20.50;99.90;;;;;;5039664;28;20025;-77
2023/06/08 00:10:45;;;;;;;17.17;7.97;;;20.50;99.90;;;;;;5036278;28;20037;-76
2023/06/08 00:13:12;;;;;;;14.18;8.65;;;20.60;99.90;;;;;;5040659;28;20023;-76
2023/06/08 00:15:39;;;;;;;19.77;7.72;;;20.60;99.90;;;;;;5038580;28;20047;-76
2023/06/08 00:18:08;;;;;;;12.50;7.60;;;20.40;99.90;;;;;;5040374;28;20115;-76
2023/06/08 00:20:34;;;;;;;15.95;8.32;;;20.30;99.90;;;;;;5036257;28;20024;-76
2023/06/08 00:23:03;;;;;;;17.35;8.95;;;20.30;99.90;;;;;;5037940;28;20413;-76
2023/06/08 00:25:29;;;;;;;13.35;8.00;;;20.40;99.90;;;;;;5035775;28;20040;-76
2023/06/08 00:27:55;;;;;;;13.82;7.82;;;20.40;99.90;;;;;;5037447;28;20028;-74
2023/06/08 00:30:21;;;;;;;19.13;7.60;;;20.40;99.90;;;;;;5039554;28;20852;-76
2023/06/08 00:32:46;;;;;;;15.82;7.88;;;20.30;99.90;;;;;;5035276;28;20032;-76
2023/06/08 00:35:12;;;;;;;13.80;7.78;;;20.30;99.90;;;;;;5035776;28;20178;-76
2023/06/08 00:37:38;;;;;;;19.05;8.77;;;20.30;99.90;;;;;;5041534;28;20024;-76
2023/06/08 00:40:04;;;;;;;17.75;8.35;;;20.30;99.90;;;;;;5034516;28;20479;-76
2023/06/08 00:42:31;;;;;;;13.77;8.45;;;20.30;99.90;;;;;;5033310;28;20092;-73
2023/06/08 00:44:57;;;;;;;15.77;7.97;;;20.30;99.90;;;;;;5036895;28;20044;-76
2023/06/08 00:47:23;;;;;;;14.88;8.85;;;20.20;99.90;;;;;;5039002;28;20029;-75
2023/06/08 00:49:50;;;;;;;12.60;7.97;;;20.20;99.90;;;;;;5037005;28;20059;-76
2023/06/08 00:52:17;;;;;;;17.00;8.30;;;20.10;99.90;;;;;;5035466;28;20017;-76
2023/06/08 00:54:48;;;;;;;16.70;8.63;;;20.00;99.90;;;;;;5038296;28;20029;-76
2023/06/08 00:57:15;;;;;;;18.67;9.10;;;20.00;99.90;;;;;;5035482;28;20017;-76
2023/06/08 00:59:43;;;;;;;14.45;9.10;;;19.80;99.90;;;;;;5036656;28;20033;-76
2023/06/08 01:02:09;;;;;;;19.38;8.55;;;19.80;99.90;;;;;;5035544;28;20034;-76
2023/06/08 01:04:35;;;;;;;16.23;8.82;;;19.70;99.90;;;;;;5036443;28;20036;-76
2023/06/08 01:07:28;;;;;;;14.35;8.18;;;19.80;99.90;;;;;;5035646;28;20044;-76
2023/06/08 01:09:57;;;;;;;11.93;8.63;;;19.70;99.90;;;;;;5039492;28;20028;-76
2023/06/08 01:12:34;;;;;;;14.45;8.20;;;19.70;99.90;;;;;;5037866;28;20022;-76
2023/06/08 01:15:25;;;;;;;16.85;8.65;;;19.60;99.90;;;;;;5035813;28;20134;-75
2023/06/08 01:17:57;;;;;;;11.75;7.28;;;19.50;99.90;;;;;;5038654;28;20041;-76
2023/06/08 01:20:32;;;;;;;12.93;7.87;;;19.50;99.90;;;;;;5036387;28;20031;-75
2023/06/08 01:23:09;;;;;;;17.92;10.52;;;19.50;99.90;;;;;;5040748;28;20025;-76
2023/06/08 01:25:38;;;;;;;17.38;9.38;;;19.40;99.90;;;;;;5053337;28;20484;-76
2023/06/08 01:28:15;;;;;;;20.42;9.95;;;19.40;99.90;;;;;;5061403;28;20421;-75
2023/06/08 01:30:46;;;;;;;15.40;9.45;;;19.40;99.90;;;;;;5048328;28;20061;-76
2023/06/08 01:33:16;;;;;;;15.70;9.52;;;19.40;99.90;;;;;;5055220;28;20029;-76
2023/06/08 01:35:46;;;;;;;16.58;8.73;;;19.40;99.90;;;;;;5058914;28;20036;-76
2023/06/08 01:38:23;;;;;;;14.02;8.52;;;19.40;99.90;;;;;;5052991;28;20029;-76
2023/06/08 01:40:54;;;;;;;15.00;9.93;;;19.40;99.90;;;;;;5057283;28;20032;-76
2023/06/08 01:43:22;;;;;;;21.27;9.77;;;19.30;99.90;;;;;;5057357;28;20024;-76
2023/06/08 01:45:51;;;;;;;15.07;9.07;;;19.30;99.90;;;;;;5057501;28;20029;-76
2023/06/08 01:48:21;;;;;;;21.33;10.18;;;19.30;99.90;;;;;;5039317;28;20021;-76
2023/06/08 01:50:49;;;;;;;18.33;9.70;;;19.20;99.90;;;;;;5063672;28;20223;-76
2023/06/08 01:53:16;;;;;;;20.08;9.98;;;19.20;99.90;;;;;;5056739;28;20370;-76
2023/06/08 01:55:42;;;;;;;18.05;9.85;;;19.20;99.90;;;;;;5057301;28;20057;-76
2023/06/08 01:58:07;;;;;;;20.48;10.95;;;19.10;99.90;;;;;;5064978;28;20507;-76
2023/06/08 02:00:33;;;;;;;18.70;10.55;;;19.00;99.90;;;;;;5066276;28;20112;-76
2023/06/08 02:02:59;;;;;;;18.08;10.75;;;19.10;99.90;;;;;;5059327;28;20020;-77
2023/06/08 02:05:24;;;;;;;16.30;9.20;;;19.10;99.90;;;;;;5056822;28;20037;-75
2023/06/08 02:07:50;;;;;;;23.45;11.23;;;19.10;99.90;;;;;;5059771;28;20090;-76
2023/06/08 02:10:17;;;;;;;19.70;10.15;;;18.90;99.90;;;;;;5063972;28;20021;-76
2023/06/08 02:12:42;;;;;;;22.15;9.85;;;18.90;99.90;;;;;;5058770;28;20022;-75
2023/06/08 02:15:09;;;;;;;22.80;11.25;;;18.90;99.90;;;;;;5052928;28;20499;-76
2023/06/08 02:17:35;;;;;;;19.85;10.65;;;19.00;99.90;;;;;;5062846;28;20044;-76
2023/06/08 02:20:05;;;;;;;20.05;10.55;;;19.00;99.90;;;;;;5061514;28;20490;-76
2023/06/08 02:22:32;;;;;;;20.17;11.25;;;19.00;99.90;;;;;;5051261;28;20021;-76
2023/06/08 02:24:58;;;;;;;20.85;9.93;;;19.00;99.90;;;;;;5065405;28;20063;-76
2023/06/08 02:27:23;;;;;;;17.77;10.88;;;19.00;99.90;;;;;;5055156;28;20052;-76
2023/06/08 02:29:49;;;;;;;20.50;10.60;;;18.90;99.90;;;;;;5057435;28;20448;-76
2023/06/08 02:32:15;;;;;;;24.08;10.43;;;18.90;99.90;;;;;;5056424;28;20029;-76
2023/06/08 02:34:41;;;;;;;22.67;10.57;;;18.90;99.90;;;;;;5058338;28;20108;-76
2023/06/08 02:37:07;;;;;;;21.77;11.57;;;18.90;99.90;;;;;;5057185;28;20049;-76
2023/06/08 02:39:33;;;;;;;19.45;11.68;;;18.90;99.90;;;;;;5057961;28;20068;-76
2023/06/08 02:41:58;;;;;;;19.08;10.38;;;18.80;99.90;;;;;;5058869;28;20078;-76
2023/06/08 02:44:24;;;;;;;17.10;9.77;;;18.80;99.90;;;;;;5056402;28;20021;-76
2023/06/08 02:46:50;;;;;;;17.23;10.50;;;18.70;99.90;;;;;;5055231;28;20025;-76
2023/06/08 02:49:16;;;;;;;19.65;11.20;;;18.60;99.90;;;;;;5060652;28;20021;-76
2023/06/08 02:51:42;;;;;;;16.17;10.57;;;18.60;99.90;;;;;;5059051;28;20021;-76
2023/06/08 02:54:07;;;;;;;17.80;11.25;;;18.40;99.90;;;;;;5057127;28;20029;-76
2023/06/08 02:56:33;;;;;;;23.42;10.63;;;18.40;99.90;;;;;;5053279;28;20024;-76
2023/06/08 02:58:59;;;;;;;20.02;11.20;;;18.40;99.90;;;;;;5064341;28;20033;-76
2023/06/08 03:01:30;;;;;;;24.90;12.32;;;18.50;99.90;;;;;;5060733;28;20029;-76
2023/06/08 03:03:56;;;;;;;26.27;12.05;;;18.50;99.90;;;;;;5064673;28;20056;-76
2023/06/08 03:06:22;;;;;;;21.75;10.98;;;18.50;99.90;;;;;;5059184;28;20492;-76
2023/06/08 03:08:53;;;;;;;17.67;10.70;;;18.40;99.90;;;;;;5054830;28;20031;-76
2023/06/08 03:11:22;;;;;;;23.03;12.03;;;18.50;99.90;;;;;;5056640;28;20531;-76
2023/06/08 03:13:48;;;;;;;29.73;11.95;;;18.30;99.90;;;;;;5059414;28;20775;-76
2023/06/08 03:16:15;;;;;;;23.27;11.70;;;18.20;99.90;;;;;;5049842;28;20021;-76
2023/06/08 03:18:41;;;;;;;21.45;11.50;;;18.30;99.90;;;;;;5053523;28;20385;-76
2023/06/08 03:21:12;;;;;;;25.60;11.48;;;18.30;99.90;;;;;;5048541;28;20021;-76
2023/06/08 03:23:38;;;;;;;23.50;11.75;;;18.30;99.90;;;;;;5055126;28;20025;-76
2023/06/08 03:26:04;;;;;;;19.02;11.30;;;18.20;99.90;;;;;;5059008;28;20025;-76
2023/06/08 03:28:30;;;;;;;18.50;11.77;;;18.30;99.90;;;;;;5057836;28;20108;-76
2023/06/08 03:30:56;;;;;;;23.23;11.35;;;18.30;99.90;;;;;;5055524;28;20035;-76
2023/06/08 03:33:22;;;;;;;22.85;12.60;;;18.10;99.90;;;;;;5059279;28;20541;-75
2023/06/08 03:35:48;;;;;;;18.45;11.90;;;18.10;99.90;;;;;;5060288;28;20136;-76
2023/06/08 03:38:14;;;;;;;19.48;11.60;;;18.10;99.90;;;;;;5055390;28;20076;-76
2023/06/08 03:40:40;;;;;;;22.08;12.55;;;18.10;99.90;;;;;;5060063;28;20029;-76
2023/06/08 03:43:05;;;;;;;20.25;11.77;;;18.10;99.90;;;;;;5054330;28;20033;-76
2023/06/08 03:45:31;;;;;;;25.58;11.95;;;18.10;99.90;;;;;;5055050;28;20040;-75
2023/06/08 03:47:57;;;;;;;22.52;12.35;;;18.10;99.90;;;;;;5063623;28;20114;-76
2023/06/08 03:50:22;;;;;;;24.48;12.98;;;17.90;99.90;;;;;;5058739;28;20021;-76
2023/06/08 03:52:48;;;;;;;21.88;12.75;;;18.00;99.90;;;;;;5059801;28;20021;-75
2023/06/08 03:55:16;;;;;;;21.65;12.13;;;18.00;99.90;;;;;;5053549;28;20065;-76
2023/06/08 03:57:42;;;;;;;27.90;13.13;;;17.90;99.90;;;;;;5059714;28;20025;-76
2023/06/08 04:00:11;;;;;;;26.60;13.60;;;17.80;99.90;;;;;;5065345;28;20388;-76
2023/06/08 04:02:37;;;;;;;25.23;13.40;;;17.90;99.90;;;;;;5057472;28;20074;-76
2023/06/08 04:05:04;;;;;;;27.77;12.90;;;17.90;99.90;;;;;;5057697;28;20025;-75
2023/06/08 04:07:32;;;;;;;18.80;11.50;;;17.90;99.90;;;;;;5054220;28;20056;-76
2023/06/08 04:09:58;;;;;;;26.02;12.88;;;17.80;99.90;;;;;;5060544;28;20024;-76
2023/06/08 04:12:23;;;;;;;23.15;13.00;;;17.90;99.90;;;;;;5059702;28;20021;-76
2023/06/08 04:14:49;;;;;;;20.13;12.18;;;17.90;99.90;;;;;;5058445;28;20466;-76
2023/06/08 04:17:15;;;;;;;21.35;13.55;;;18.00;99.90;;;;;;5052586;28;20021;-76
2023/06/08 04:19:41;;;;;;;20.70;11.75;;;18.00;99.90;;;;;;5060155;28;20396;-75
2023/06/08 04:22:07;;;;;;;24.10;13.10;;;17.90;99.90;;;;;;5052175;28;20088;-76
2023/06/08 04:24:33;;;;;;;22.58;13.75;;;17.90;99.90;;;;;;5048843;28;20496;-76
2023/06/08 04:26:59;;;;;;;23.75;12.23;;;17.80;99.90;;;;;;5052842;28;20013;-76
2023/06/08 04:29:25;;;;;;;18.45;12.82;;;17.90;99.90;;;;;;5061701;28;20028;-74
2023/06/08 04:31:51;;;;;;;23.60;11.77;;;17.90;99.90;;;;;;5055617;28;20377;-76
2023/06/08 04:34:17;;;;;;;19.33;12.80;;;17.90;99.90;;;;;;5056392;28;20025;-76
2023/06/08 04:36:43;;;;;;;21.58;12.60;;;17.90;99.90;;;;;;5051632;28;20121;-75
2023/06/08 04:39:09;;;;;;;23.95;12.20;;;17.90;99.90;;;;;;5054207;28;20491;-76
2023/06/08 04:41:35;;;;;;;24.17;14.05;;;17.90;99.90;;;;;;5052136;28;20021;-75
2023/06/08 04:44:02;;;;;;;20.48;13.45;;;17.80;99.90;;;;;;5057888;28;20032;-75
2023/06/08 04:46:37;;;;;;;22.52;14.10;;;17.70;99.90;;;;;;5050365;28;20021;-75
2023/06/08 04:49:03;;;;;;;26.10;13.75;;;17.70;99.90;;;;;;5056946;28;20110;-76
2023/06/08 04:51:31;;;;;;;23.65;13.68;;;17.70;99.90;;;;;;5056746;28;20023;-76
2023/06/08 04:54:01;;;;;;;26.63;14.35;;;17.80;99.90;;;;;;5057038;28;20024;-76
2023/06/08 04:56:29;;;;;;;23.80;13.73;;;17.70;99.90;;;;;;5054293;28;20100;-76
2023/06/08 04:58:56;;;;;;;19.38;13.48;;;17.70;99.90;;;;;;5066141;28;20090;-75
2023/06/08 05:01:22;;;;;;;27.40;14.50;;;17.80;99.90;;;;;;5056268;28;20373;-75
2023/06/08 05:03:48;;;;;;;22.88;13.52;;;17.80;99.90;;;;;;5060469;28;20032;-78
2023/06/08 05:06:14;;;;;;;25.92;13.80;;;17.80;99.90;;;;;;5048303;28;20028;-76
2023/06/08 05:08:41;;;;;;;23.52;13.23;;;17.80;99.90;;;;;;5059922;28;20027;-74
2023/06/08 05:11:08;;;;;;;19.77;12.77;;;17.90;99.90;;;;;;5054915;28;20032;-80
2023/06/08 05:13:34;;;;;;;20.77;12.32;;;17.80;99.90;;;;;;5055206;28;20480;-76
2023/06/08 05:15:59;;;;;;;22.92;12.98;;;17.80;99.90;;;;;;5058456;28;20040;-84
2023/06/08 05:18:25;;;;;;;19.23;12.32;;;17.80;99.90;;;;;;5049180;28;20493;-78
2023/06/08 05:20:51;;;;;;;23.42;13.30;;;17.80;99.90;;;;;;5066375;28;20025;-81
2023/06/08 05:23:17;;;;;;;26.10;13.50;;;17.80;99.90;;;;;;5056515;28;20025;-79
2023/06/08 05:25:43;;;;;;;22.08;13.30;;;17.80;99.90;;;;;;5060458;28;20049;-76
2023/06/08 05:28:09;;;;;;;24.85;15.40;;;17.60;99.90;;;;;;5063583;28;20028;-81
2023/06/08 05:30:35;;;;;;;26.83;13.40;;;17.60;99.90;;;;;;5053579;28;20040;-83
2023/06/08 05:33:02;;;;;;;25.58;13.75;;;17.70;99.90;;;;;;5059956;28;20024;-83
2023/06/08 05:35:29;;;;;;;23.67;13.90;;;17.60;99.90;;;;;;5049657;28;20021;-81
2023/06/08 05:37:55;;;;;;;20.75;14.63;;;17.60;99.90;;;;;;5063283;28;20029;-78
2023/06/08 05:40:21;;;;;;;26.70;15.15;;;17.60;99.90;;;;;;5058008;28;20036;-79
2023/06/08 05:42:46;;;;;;;22.85;13.80;;;17.70;99.90;;;;;;5054895;28;20709;-81
2023/06/08 05:45:12;;;;;;;29.63;14.95;;;17.70;99.90;;;;;;5058956;28;20025;-82
2023/06/08 05:47:38;;;;;;;24.75;14.88;;;17.80;99.90;;;;;;5058959;28;20068;-83
2023/06/08 05:50:04;;;;;;;29.17;15.75;;;17.80;99.90;;;;;;5053706;28;20388;-89
2023/06/08 05:52:30;;;;;;;26.50;16.30;;;17.80;99.90;;;;;;5053863;28;20013;-78
2023/06/08 05:54:57;;;;;;;22.90;14.38;;;17.70;99.90;;;;;;5062396;28;20082;-78
2023/06/08 05:57:23;;;;;;;29.33;16.08;;;17.60;99.90;;;;;;5053277;28;20024;-78
2023/06/08 05:59:50;;;;;;;25.00;14.68;;;17.60;99.90;;;;;;5059320;28;20028;-76
2023/06/08 06:02:16;;;;;;;27.05;16.00;;;17.60;99.90;;;;;;5060953;28;20028;-80
2023/06/08 06:04:42;;;;;;;23.13;16.17;;;17.60;99.90;;;;;;5059410;28;20081;-75
2023/06/08 06:07:08;;;;;;;27.60;18.10;;;17.60;99.90;;;;;;5052398;28;20125;-79
2023/06/08 06:09:34;;;;;;;29.65;17.27;;;17.60;99.90;;;;;;5060593;28;20171;-76
2023/06/08 06:11:59;;;;;;;32.53;17.15;;;17.60;99.90;;;;;;5058187;28;20444;-74
2023/06/08 06:14:27;;;;;;;28.98;19.05;;;17.60;99.90;;;;;;5052665;28;20378;-75
2023/06/08 06:16:53;;;;;;;27.50;15.82;;;17.70;99.90;;;;;;5055404;28;20033;-75
2023/06/08 06:19:19;;;;;;;34.00;16.90;;;17.80;99.90;;;;;;5051639;28;20036;-76
2023/06/08 06:21:45;;;;;;;23.42;15.18;;;17.80;99.90;;;;;;5054209;28;20111;-76
2023/06/08 06:30:42;;;;;;;27.05;17.05;;;17.90;99.90;;;;;;4982969;28;20038;-70
2023/06/08 06:33:08;;;;;;;32.60;18.23;;;17.80;99.90;;;;;;5024695;23;20041;-71
2023/06/08 06:35:34;;;;;;;29.27;16.40;;;17.90;99.90;;;;;;5023053;28;20033;-70
2023/06/08 06:38:00;;;;;;;28.42;16.88;;;18.10;99.90;;;;;;5018107;28;20610;-72
2023/06/08 06:40:25;;;;;;;32.42;18.60;;;18.20;99.90;;;;;;5026562;28;20122;-71
2023/06/08 06:42:51;;;;;;;30.85;17.30;;;18.10;99.90;;;;;;5028475;28;20025;-74
2023/06/08 06:45:17;;;;;;;35.67;17.95;;;18.10;99.90;;;;;;5020163;28;20037;-75
2023/06/08 06:47:42;;;;;;;24.70;17.55;;;18.10;99.90;;;;;;5025049;28;20380;-72
2023/06/08 06:50:08;;;;;;;27.50;16.45;;;18.30;99.90;;;;;;5024786;28;20026;-72
2023/06/08 06:52:34;;;;;;;32.00;18.20;;;18.30;99.90;;;;;;5024282;28;20032;-72
2023/06/08 06:55:02;;;;;;;29.80;17.60;;;18.40;99.90;;;;;;5031081;28;20029;-72
2023/06/08 06:57:31;;;;;;;29.33;16.58;;;18.60;99.90;;;;;;5029110;28;20032;-72
2023/06/08 07:00:00;;;;;;;26.08;17.38;;;18.60;99.90;;;;;;5029369;28;20083;-72
2023/06/08 07:02:28;;;;;;;25.90;17.70;;;18.70;99.90;;;;;;5022334;28;20044;-72
2023/06/08 07:04:55;;;;;;;26.60;17.38;;;18.80;99.90;;;;;;5025035;28;20472;-72
2023/06/08 07:07:23;;;;;;;26.70;16.27;;;19.00;99.90;;;;;;5029527;28;20080;-72
2023/06/08 07:09:48;;;;;;;26.75;16.65;;;19.10;99.90;;;;;;5008115;28;20022;-72
2023/06/08 07:12:15;;;;;;;26.80;17.58;;;19.40;99.90;;;;;;5024747;28;20040;-71
2023/06/08 07:14:40;;;;;;;31.67;16.90;;;19.60;99.90;;;;;;5036344;28;20023;-71
2023/06/08 07:17:06;;;;;;;25.55;16.38;;;19.70;99.90;;;;;;5022238;28;20109;-71
2023/06/08 07:19:33;;;;;;;29.25;16.70;;;19.70;99.90;;;;;;5023868;28;20034;-73
2023/06/08 07:21:59;;;;;;;26.35;16.73;;;19.70;99.90;;;;;;5025815;28;20026;-73
2023/06/08 07:24:25;;;;;;;31.98;17.60;;;19.80;99.90;;;;;;5022552;28;20021;-74
2023/06/08 07:26:50;;;;;;;29.70;17.48;;;19.90;99.90;;;;;;5027954;28;20018;-75
2023/06/08 07:29:17;;;;;;;30.27;17.33;;;20.00;99.90;;;;;;5030025;28;20021;-73
2023/06/08 07:31:42;;;;;;;26.23;17.25;;;20.20;99.90;;;;;;5025045;28;20048;-72
2023/06/08 07:34:08;;;;;;;31.88;17.52;;;20.30;99.90;;;;;;5027939;28;20021;-72
2023/06/08 07:36:35;;;;;;;24.17;18.20;;;20.30;99.90;;;;;;5017296;28;20030;-73
2023/06/08 07:39:03;;;;;;;26.73;18.65;;;20.40;99.90;;;;;;5026864;28;20026;-72
2023/06/08 07:41:29;;;;;;;26.20;17.55;;;20.50;99.90;;;;;;5027777;28;20038;-72
2023/06/08 07:43:57;;;;;;;28.65;17.63;;;20.60;99.90;;;;;;5020325;28;20022;-72
2023/06/08 07:46:23;;;;;;;27.17;17.42;;;20.80;99.90;;;;;;5024370;28;20041;-72
2023/06/08 07:48:49;;;;;;;28.67;17.88;;;20.90;99.90;;;;;;5017717;28;20355;-72
2023/06/08 07:51:15;;;;;;;25.67;16.52;;;21.00;99.90;;;;;;5024734;28;20037;-72
2023/06/08 07:53:41;;;;;;;26.50;17.73;;;21.00;99.90;;;;;;5029028;28;20449;-72
2023/06/08 07:56:07;;;;;;;27.95;17.65;;;21.00;99.90;;;;;;5021035;28;20018;-72
2023/06/08 07:58:33;;;;;;;26.35;17.20;;;21.10;99.90;;;;;;5024783;28;20033;-72
2023/06/08 08:01:00;;;;;;;25.73;15.98;;;21.30;99.90;;;;;;5010209;28;20120;-72
2023/06/08 08:03:26;;;;;;;28.05;16.38;;;21.50;99.90;;;;;;5010973;28;20028;-72
2023/06/08 08:05:52;;;;;;;24.48;17.10;;;21.60;99.90;;;;;;5024983;28;20432;-72
2023/06/08 08:08:18;;;;;;;27.27;17.02;;;21.50;99.90;;;;;;5025283;28;20524;-72
2023/06/08 08:10:44;;;;;;;22.30;15.40;;;21.70;99.90;;;;;;5022590;28;20029;-72
2023/06/08 08:13:11;;;;;;;24.48;16.98;;;22.00;99.90;;;;;;5032304;28;20029;-72
2023/06/08 08:15:39;;;;;;;23.63;16.10;;;22.10;99.90;;;;;;5026558;28;20030;-76
2023/06/08 08:18:05;;;;;;;24.55;15.88;;;22.20;99.90;;;;;;5019780;28;20036;-74
2023/06/08 08:20:33;;;;;;;24.58;15.57;;;22.40;99.90;;;;;;5020824;28;20411;-75
2023/06/08 08:22:58;;;;;;;23.75;16.17;;;22.30;99.90;;;;;;5023035;28;20075;-77
2023/06/08 08:25:24;;;;;;;24.48;15.90;;;22.40;99.90;;;;;;5021221;28;20030;-75
2023/06/08 08:27:50;;;;;;;23.40;15.60;;;22.40;99.90;;;;;;5023862;28;20017;-75
2023/06/08 08:30:16;;;;;;;24.15;15.63;;;22.60;99.90;;;;;;5022625;28;20026;-74
2023/06/08 08:32:42;;;;;;;23.42;14.55;;;22.80;99.90;;;;;;5025799;28;20032;-75
2023/06/08 08:35:10;;;;;;;31.05;16.17;;;23.00;99.90;;;;;;5022542;28;20456;-74
2023/06/08 08:37:36;;;;;;;28.80;15.77;;;23.10;99.90;;;;;;5029368;28;20128;-73
2023/06/08 08:40:02;;;;;;;26.90;15.43;;;23.10;99.90;;;;;;5023080;28;20112;-74
2023/06/08 08:42:30;;;;;;;23.10;14.95;;;23.20;99.90;;;;;;5021578;28;20029;-73
2023/06/08 08:45:00;;;;;;;17.83;14.23;;;23.30;99.90;;;;;;5009994;28;20037;-74
2023/06/08 08:47:29;;;;;;;23.33;14.40;;;23.30;99.90;;;;;;5024145;28;20018;-73
2023/06/08 08:50:03;;;;;;;24.33;14.38;;;23.40;99.90;;;;;;5024490;28;20025;-74
2023/06/08 08:52:32;;;;;;;22.55;15.05;;;23.50;99.90;;;;;;5021357;28;20055;-73
2023/06/08 08:55:00;;;;;;;21.75;14.20;;;23.60;99.90;;;;;;5021747;28;20026;-73
2023/06/08 08:57:30;;;;;;;20.10;13.98;;;23.80;99.90;;;;;;5024204;28;20025;-73
2023/06/08 08:59:56;;;;;;;21.40;14.45;;;23.80;99.90;;;;;;5021727;28;20037;-73
2023/06/08 09:02:23;;;;;;;20.55;13.85;;;24.20;99.90;;;;;;5010474;28;20069;-72
2023/06/08 09:04:49;;;;;;;16.55;12.68;;;24.40;99.90;;;;;;5025152;28;20485;-72
2023/06/08 09:07:20;;;;;;;18.15;12.75;;;24.40;99.90;;;;;;5021706;28;20021;-72
2023/06/08 09:10:14;;;;;;;17.15;12.55;;;24.30;99.90;;;;;;5024122;28;20388;-73
2023/06/08 09:12:41;;;;;;;20.48;12.93;;;24.50;99.90;;;;;;5018728;28;20393;-72
2023/06/08 09:15:11;;;;;;;22.02;13.80;;;24.80;99.90;;;;;;5024585;28;20022;-72
2023/06/08 09:17:38;;;;;;;23.35;13.43;;;25.00;99.90;;;;;;5014169;28;20017;-72
2023/06/08 09:20:08;;;;;;;19.65;13.95;;;25.10;99.90;;;;;;5024744;28;20034;-72
2023/06/08 09:22:36;;;;;;;17.45;12.77;;;25.10;99.90;;;;;;5018454;28;20493;-72
2023/06/08 09:25:03;;;;;;;18.58;13.75;;;25.10;99.90;;;;;;5026807;28;20419;-72
2023/06/08 09:27:30;;;;;;;19.63;12.43;;;25.10;99.90;;;;;;5022418;28;20034;-72
2023/06/08 09:29:57;;;;;;;19.73;12.85;;;25.30;99.90;;;;;;5023427;28;20065;-72
2023/06/08 09:32:31;;;;;;;21.55;12.38;;;25.30;99.90;;;;;;5023432;28;20109;-72
2023/06/08 09:35:02;;;;;;;22.40;13.02;;;25.40;99.90;;;;;;5023696;28;20025;-72
2023/06/08 09:37:33;;;;;;;17.60;13.02;;;25.60;99.90;;;;;;5000444;28;20032;-72
2023/06/08 09:40:00;;;;;;;16.48;10.80;;;25.80;99.90;;;;;;5020947;28;20034;-72
2023/06/08 09:42:53;;;;;;;16.33;11.55;;;25.80;99.90;;;;;;5024377;28;20457;-72
2023/06/08 09:45:20;;;;;;;22.75;12.60;;;26.10;99.90;;;;;;5018278;28;20116;-72
2023/06/08 09:47:47;;;;;;;17.95;12.63;;;26.20;99.90;;;;;;5022461;28;20389;-73
2023/06/08 09:50:13;;;;;;;16.00;10.85;;;26.50;99.90;;;;;;5023810;28;20025;-73
2023/06/08 09:52:40;;;;;;;16.98;11.82;;;26.40;99.90;;;;;;5023996;28;20124;-72
2023/06/08 09:55:06;;;;;;;31.83;17.63;;;26.50;99.90;;;;;;5007137;28;20393;-72
2023/06/08 09:57:36;;;;;;;18.42;12.13;;;26.60;99.90;;;;;;5019590;28;20029;-72
2023/06/08 10:00:29;;;;;;;15.38;10.50;;;26.60;99.90;;;;;;5023852;28;20065;-72
2023/06/08 10:03:27;;;;;;;14.38;12.52;;;26.50;99.90;;;;;;5020139;28;20041;-72
2023/06/08 10:05:54;;;;;;;15.13;10.23;;;26.70;99.90;;;;;;5024447;28;20041;-72
2023/06/08 10:08:24;;;;;;;15.02;11.73;;;26.70;99.90;;;;;;5027898;28;20029;-72
2023/06/08 10:10:50;;;;;;;18.45;11.23;;;26.70;99.90;;;;;;5030291;28;20911;-73
2023/06/08 10:13:17;;;;;;;13.77;10.15;;;26.90;99.90;;;;;;5023148;28;20029;-73
2023/06/08 10:15:43;;;;;;;17.73;11.05;;;27.00;99.90;;;;;;5028272;28;20499;-72
2023/06/08 10:18:10;;;;;;;16.95;8.73;;;27.10;99.90;;;;;;5025641;28;20013;-73
2023/06/08 10:20:36;;;;;;;9.00;7.18;;;26.80;99.90;;;;;;5025916;28;20052;-73
2023/06/08 10:23:04;;;;;;;15.25;8.30;;;26.60;99.90;;;;;;5024482;28;20046;-73
2023/06/08 10:25:30;;;;;;;7.85;7.05;;;26.30;99.90;;;;;;5025098;28;20423;-74
2023/06/08 10:28:07;;;;;;;14.30;9.10;;;26.30;99.90;;;;;;5029000;28;20022;-73
2023/06/08 10:30:44;;;;;;;12.85;9.20;;;26.60;99.90;;;;;;5028037;28;20036;-73
2023/06/08 10:33:12;;;;;;;14.15;8.68;;;26.60;99.90;;;;;;5025760;28;20484;-73
2023/06/08 10:35:42;;;;;;;9.68;8.20;;;26.60;99.90;;;;;;5023144;28;20026;-74
2023/06/08 10:38:12;;;;;;;17.70;7.60;;;26.80;99.90;;;;;;5027331;28;20021;-76
2023/06/08 10:40:46;;;;;;;12.27;7.93;;;26.80;99.90;;;;;;5007769;28;20120;-76
2023/06/08 10:43:13;;;;;;;9.13;7.35;;;26.90;99.90;;;;;;5026715;28;20088;-75
2023/06/08 10:45:43;;;;;;;10.90;7.47;;;26.80;99.90;;;;;;5027940;28;20187;-74
2023/06/08 10:48:13;;;;;;;9.23;7.32;;;26.80;99.90;;;;;;5025254;28;20026;-74
2023/06/08 10:50:41;;;;;;;8.65;6.82;;;26.80;99.90;;;;;;5024647;28;20025;-75
2023/06/08 10:53:07;;;;;;;12.13;7.93;;;26.90;99.90;;;;;;5023122;28;20469;-75
2023/06/08 10:55:33;;;;;;;8.85;6.55;;;26.80;99.90;;;;;;5026747;28;20079;-75
2023/06/08 10:58:17;;;;;;;10.32;7.70;;;26.90;99.90;;;;;;5027597;28;20075;-76
2023/06/08 11:00:43;;;;;;;11.52;7.65;;;27.20;99.90;;;;;;5026037;28;20112;-77
2023/06/08 11:03:11;;;;;;;11.68;7.55;;;27.30;99.90;;;;;;5026987;28;20440;-77
2023/06/08 11:05:40;;;;;;;10.02;8.02;;;27.50;99.90;;;;;;5023537;28;20369;-77
2023/06/08 11:08:09;;;;;;;10.77;7.88;;;27.30;99.90;;;;;;5024958;28;20021;-77
2023/06/08 11:10:39;;;;;;;10.57;8.93;;;27.50;99.90;;;;;;5025834;28;20030;-76
2023/06/08 11:13:12;;;;;;;8.23;7.07;;;27.40;99.90;;;;;;5027389;28;20097;-77
2023/06/08 11:15:40;;;;;;;10.50;7.90;;;27.30;99.90;;;;;;5025744;28;20029;-77
2023/06/08 11:18:08;;;;;;;11.32;8.45;;;27.40;99.90;;;;;;5008462;28;20021;-77
2023/06/08 11:20:37;;;;;;;10.02;7.53;;;27.30;99.90;;;;;;5026655;28;20127;-76
2023/06/08 11:23:09;;;;;;;10.07;7.45;;;27.50;99.90;;;;;;5025365;28;20029;-78
2023/06/08 11:25:35;;;;;;;9.32;6.82;;;27.40;99.90;;;;;;5025935;28;20060;-77
2023/06/08 11:28:01;;;;;;;9.02;7.80;;;27.70;99.90;;;;;;5025580;28;20045;-77
2023/06/08 11:30:28;;;;;;;9.70;6.90;;;27.80;99.90;;;;;;5025408;28;20024;-77
2023/06/08 11:32:56;;;;;;;7.57;6.57;;;27.90;99.90;;;;;;5024271;28;20068;-77
2023/06/08 11:35:22;;;;;;;10.02;6.90;;;27.90;99.90;;;;;;5025721;28;20026;-76
2023/06/08 11:37:49;;;;;;;10.23;7.15;;;28.00;99.90;;;;;;5023121;28;20025;-74
2023/06/08 11:40:16;;;;;;;7.13;6.43;;;28.10;99.90;;;;;;5026102;28;20052;-75
2023/06/08 11:42:43;;;;;;;9.23;8.23;;;28.10;99.90;;;;;;5026176;28;20100;-80
2023/06/08 11:45:10;;;;;;;12.45;8.38;;;28.30;99.90;;;;;;5026076;28;20465;-77
2023/06/08 11:47:36;;;;;;;13.98;7.88;;;28.10;99.90;;;;;;5024720;28;20025;-76
2023/06/08 11:50:03;;;;;;;10.30;7.95;;;28.20;99.90;;;;;;5026475;28;20053;-76
2023/06/08 11:52:33;;;;;;;15.45;10.50;;;28.20;99.90;;;;;;5025319;28;20040;-75
2023/06/08 11:55:08;;;;;;;14.73;10.57;;;28.20;99.90;;;;;;5025028;28;20032;-75
2023/06/08 11:57:41;;;;;;;14.52;9.60;;;28.00;99.90;;;;;;5024618;28;20021;-74
2023/06/08 12:00:09;;;;;;;14.10;9.13;;;28.10;99.90;;;;;;5022364;28;20396;-74
2023/06/08 12:02:39;;;;;;;12.80;9.90;;;28.10;99.90;;;;;;5023616;28;20036;-74
2023/06/08 12:05:06;;;;;;;11.63;8.48;;;27.90;99.90;;;;;;5024781;28;20034;-74
2023/06/08 12:07:33;;;;;;;13.30;9.70;;;28.10;99.90;;;;;;5024259;28;20014;-74
2023/06/08 12:09:59;;;;;;;14.63;9.77;;;28.30;99.90;;;;;;5025814;28;20152;-75
2023/06/08 12:12:29;;;;;;;10.75;9.23;;;28.20;99.90;;;;;;5022944;28;20045;-75
2023/06/08 12:14:56;;;;;;;14.45;10.10;;;28.40;99.90;;;;;;5024352;28;20031;-75
2023/06/08 12:17:27;;;;;;;11.90;9.05;;;28.60;99.90;;;;;;5025665;28;20025;-75
2023/06/08 12:19:53;;;;;;;13.90;10.65;;;28.40;99.90;;;;;;5024939;28;20037;-74
2023/06/08 12:22:19;;;;;;;11.38;9.57;;;28.10;99.90;;;;;;5025127;28;20049;-75
2023/06/08 12:24:45;;;;;;;11.63;9.05;;;28.00;99.90;;;;;;5026303;28;20026;-75
2023/06/08 12:27:12;;;;;;;13.30;8.13;;;28.20;99.90;;;;;;5024530;28;20665;-75
2023/06/08 12:29:37;;;;;;;11.98;10.02;;;28.20;99.90;;;;;;5022500;28;20045;-76
2023/06/08 12:32:04;;;;;;;15.00;9.57;;;28.10;99.90;;;;;;5024723;28;20145;-76
2023/06/08 12:34:31;;;;;;;12.32;9.25;;;28.50;99.90;;;;;;5025494;28;20041;-78
2023/06/08 12:36:57;;;;;;;12.13;8.68;;;28.40;99.90;;;;;;5024131;28;20492;-77
2023/06/08 12:39:23;;;;;;;13.43;8.35;;;28.40;99.90;;;;;;5026578;28;20046;-76